createdAt,value
2022-08-10T00:01:51.935Z,98086.44
2022-08-10T00:04:22.255Z,98082.47
2022-08-10T00:06:53.700Z,98076.81
2022-08-10T00:09:22.284Z,98082.66
2022-08-10T00:11:50.642Z,98072.31
2022-08-10T00:14:19.168Z,98071.69
2022-08-10T00:16:47.413Z,98074.75
2022-08-10T00:19:16.631Z,98074.50
2022-08-10T00:21:46.978Z,98075.34
2022-08-10T00:24:17.135Z,98077.78
2022-08-10T00:27:51.799Z,98074.72
2022-08-10T00:29:33.816Z,98075.13
2022-08-10T00:32:02.088Z,98068.94
2022-08-10T00:34:31.121Z,98072.84
2022-08-10T00:36:59.889Z,98067.75
2022-08-10T00:39:30.434Z,98071.78
2022-08-10T00:42:08.166Z,98072.66
2022-08-10T00:44:37.910Z,98074.66
2022-08-10T00:47:06.676Z,98066.47
2022-08-10T00:49:34.978Z,98073.78
2022-08-10T00:52:03.813Z,98071.41
2022-08-10T00:54:33.574Z,98067.78
2022-08-10T00:57:16.239Z,98066.50
2022-08-10T00:59:59.159Z,98071.16
2022-08-10T01:02:30.192Z,98071.09
2022-08-10T01:05:01.964Z,98071.38
2022-08-10T01:08:03.193Z,98071.41
2022-08-10T01:10:39.810Z,98069.00
2022-08-10T01:13:11.527Z,98074.38
2022-08-10T01:15:48.024Z,98070.91
2022-08-10T01:18:21.379Z,98073.25
2022-08-10T01:21:02.583Z,98074.31
2022-08-10T01:23:55.108Z,98073.00
2022-08-10T01:26:40.553Z,98072.78
2022-08-10T01:29:37.885Z,98069.00
2022-08-10T01:32:09.070Z,98079.69
2022-08-10T01:34:40.644Z,98065.66
2022-08-10T01:37:13.746Z,98073.03
2022-08-10T01:39:45.330Z,98064.16
2022-08-10T01:42:16.342Z,98072.66
2022-08-10T01:44:50.202Z,98074.22
2022-08-10T01:47:42.931Z,98080.59
2022-08-10T01:50:15.156Z,98079.22
2022-08-10T01:52:44.174Z,98080.22
2022-08-10T01:55:13.880Z,98077.22
2022-08-10T01:57:43.077Z,98082.16
2022-08-10T02:00:14.167Z,98085.75
2022-08-10T02:02:43.408Z,98090.34
2022-08-10T02:05:13.203Z,98085.34
2022-08-10T02:07:44.098Z,98075.06
2022-08-10T02:10:14.666Z,98090.38
2022-08-10T02:12:44.855Z,98083.19
2022-08-10T02:15:17.381Z,98081.69
2022-08-10T02:17:59.624Z,98078.31
2022-08-10T02:20:34.277Z,98082.56
2022-08-10T02:23:05.383Z,98074.72
2022-08-10T02:25:41.609Z,98076.31
2022-08-10T02:28:30.494Z,98075.41
2022-08-10T02:31:06.094Z,98078.94
2022-08-10T02:33:36.961Z,98078.44
2022-08-10T02:36:07.472Z,98079.28
2022-08-10T02:38:58.899Z,98080.56
2022-08-10T02:45:01.478Z,98081.44
2022-08-10T02:45:29.743Z,98075.16
2022-08-10T02:47:17.942Z,98077.56
2022-08-10T02:49:51.257Z,98074.66
2022-08-10T02:52:23.688Z,98076.25
2022-08-10T02:54:53.756Z,98077.34
2022-08-10T02:57:25.387Z,98074.16
2022-08-10T02:59:56.101Z,98075.78
2022-08-10T03:02:29.179Z,98073.91
2022-08-10T03:05:02.679Z,98076.66
2022-08-10T03:07:44.553Z,98070.56
2022-08-10T03:10:21.070Z,98074.38
2022-08-10T03:12:52.777Z,98066.59
2022-08-10T03:15:22.735Z,98064.56
2022-08-10T03:17:56.753Z,98077.72
2022-08-10T03:20:37.336Z,98067.03
2022-08-10T03:23:11.991Z,98079.94
2022-08-10T03:25:40.504Z,98080.84
2022-08-10T03:28:08.933Z,98087.13
2022-08-10T03:30:37.582Z,98091.50
2022-08-10T03:33:08.846Z,98094.28
2022-08-10T03:35:37.342Z,98088.22
2022-08-10T03:38:05.648Z,98095.44
2022-08-10T03:40:46.032Z,98093.78
2022-08-10T03:43:17.358Z,98091.84
2022-08-10T03:45:49.489Z,98088.09
2022-08-10T03:48:32.306Z,98095.44
2022-08-10T03:51:16.118Z,98108.13
2022-08-10T03:54:04.941Z,98102.06
2022-08-10T03:56:34.200Z,98107.63
2022-08-10T03:59:02.964Z,98110.44
2022-08-10T04:02:47.060Z,98113.91
2022-08-10T04:04:24.775Z,98104.88
2022-08-10T04:06:55.211Z,98111.34
2022-08-10T04:09:24.288Z,98108.44
2022-08-10T04:11:52.473Z,98108.56
2022-08-10T04:14:35.721Z,98106.16
2022-08-10T04:17:13.758Z,98104.25
2022-08-10T04:19:47.463Z,98097.13
2022-08-10T04:22:19.371Z,98110.44
2022-08-10T04:24:48.842Z,98105.78
2022-08-10T04:27:17.233Z,98098.06
2022-08-10T04:29:46.069Z,98096.47
2022-08-10T04:32:16.250Z,98104.41
2022-08-10T04:34:46.325Z,98109.09
2022-08-10T04:37:15.300Z,98114.53
2022-08-10T04:39:43.726Z,98118.91
2022-08-10T04:42:12.034Z,98118.06
2022-08-10T04:44:41.896Z,98116.84
2022-08-10T04:47:10.129Z,98112.81
2022-08-10T04:49:55.727Z,98119.63
2022-08-10T04:52:26.420Z,98116.81
2022-08-10T04:54:54.829Z,98121.03
2022-08-10T04:57:22.995Z,98120.75
2022-08-10T04:59:51.225Z,98118.41
2022-08-10T05:02:30.312Z,98117.59
2022-08-10T05:05:07.901Z,98127.75
2022-08-10T05:07:51.448Z,98126.53
2022-08-10T05:10:22.416Z,98126.69
2022-08-10T05:12:50.749Z,98137.91
2022-08-10T05:15:19.349Z,98139.25
2022-08-10T05:18:09.630Z,98142.72
2022-08-10T05:20:36.367Z,98149.00
2022-08-10T05:23:06.161Z,98138.59
2022-08-10T05:25:38.058Z,98141.22
2022-08-10T05:28:09.262Z,98145.91
2022-08-10T05:30:37.550Z,98143.63
2022-08-10T05:33:08.804Z,98137.50
2022-08-10T05:35:52.910Z,98146.88
2022-08-10T05:38:29.892Z,98140.22
2022-08-10T05:40:58.643Z,98142.00
2022-08-10T05:43:26.949Z,98143.59
2022-08-10T05:46:19.012Z,98146.66
2022-08-10T05:48:59.252Z,98152.75
2022-08-10T05:51:29.935Z,98152.22
2022-08-10T05:54:06.004Z,98152.75
2022-08-10T05:56:53.950Z,98156.28
2022-08-10T06:00:34.552Z,98158.28
2022-08-10T06:02:31.681Z,98152.66
2022-08-10T06:05:09.453Z,98156.97
2022-08-10T06:07:42.873Z,98157.97
2022-08-10T06:10:31.690Z,98152.78
2022-08-10T06:13:27.154Z,98155.72
2022-08-10T06:16:05.266Z,98152.44
2022-08-10T06:18:33.837Z,98150.56
2022-08-10T06:21:02.261Z,98147.63
2022-08-10T06:23:31.343Z,98149.25
2022-08-10T06:26:12.214Z,98148.69
2022-08-10T06:28:54.051Z,98152.72
2022-08-10T06:31:47.812Z,98147.84
2022-08-10T06:34:21.713Z,98147.19
2022-08-10T06:36:50.462Z,98149.97
2022-08-10T06:39:35.831Z,98146.00
2022-08-10T06:42:15.880Z,98153.63
2022-08-10T06:44:50.315Z,98155.63
2022-08-10T06:47:22.933Z,98146.88
2022-08-10T06:49:53.863Z,98151.06
2022-08-10T06:52:31.731Z,98156.41
2022-08-10T06:55:00.827Z,98158.69
2022-08-10T06:57:35.759Z,98147.25
2022-08-10T07:00:08.133Z,98152.28
2022-08-10T07:02:41.835Z,98148.16
2022-08-10T07:05:13.271Z,98152.25
2022-08-10T07:07:43.222Z,98146.13
2022-08-10T07:10:11.635Z,98144.69
2022-08-10T07:12:43.886Z,98141.03
2022-08-10T07:15:14.162Z,98147.63
2022-08-10T07:17:43.017Z,98136.47
2022-08-10T07:20:12.458Z,98139.59
2022-08-10T07:23:26.890Z,98142.53
2022-08-10T07:25:30.778Z,98147.19
2022-08-10T07:28:02.099Z,98139.00
2022-08-10T07:30:32.030Z,98148.59
2022-08-10T07:33:02.147Z,98141.66
2022-08-10T07:35:41.860Z,98143.72
2022-08-10T07:38:19.088Z,98145.97
2022-08-10T07:40:50.892Z,98147.94
2022-08-10T07:43:24.117Z,98138.25
2022-08-10T07:45:52.697Z,98151.06
2022-08-10T07:48:24.468Z,98138.84
2022-08-10T07:50:57.921Z,98138.00
2022-08-10T07:53:28.553Z,98137.00
2022-08-10T07:56:05.007Z,98147.50
2022-08-10T07:58:51.844Z,98138.09
2022-08-10T08:01:22.777Z,98147.25
2022-08-10T08:04:05.929Z,98146.72
2022-08-10T08:06:41.696Z,98140.59
2022-08-10T08:09:10.797Z,98135.56
2022-08-10T08:11:39.530Z,98135.47
2022-08-10T08:14:09.783Z,98137.91
2022-08-10T08:16:39.318Z,98139.38
2022-08-10T08:19:28.100Z,98133.78
2022-08-10T08:24:06.834Z,98135.25
2022-08-10T08:24:46.172Z,98138.34
2022-08-10T08:27:16.912Z,98136.06
2022-08-10T08:29:48.361Z,98136.13
2022-08-10T08:32:18.342Z,98132.34
2022-08-10T08:34:47.590Z,98133.22
2022-08-10T08:38:28.895Z,98133.63
2022-08-10T08:40:10.626Z,98134.47
2022-08-10T08:43:09.389Z,98132.91
2022-08-10T08:45:58.716Z,98141.47
2022-08-10T08:48:54.519Z,98128.97
2022-08-10T08:52:07.868Z,98134.88
2022-08-10T08:54:46.711Z,98127.75
2022-08-10T08:57:49.379Z,98134.91
2022-08-10T09:00:17.502Z,98132.34
2022-08-10T09:03:09.399Z,98133.53
2022-08-10T09:05:59.147Z,98128.53
2022-08-10T09:09:01.262Z,98127.41
2022-08-10T09:11:42.658Z,98127.66
2022-08-10T09:14:19.476Z,98121.66
2022-08-10T09:16:58.950Z,98123.22
2022-08-10T09:19:36.851Z,98129.22
2022-08-10T09:22:18.198Z,98119.41
2022-08-10T09:24:53.751Z,98126.25
2022-08-10T09:27:23.902Z,98118.91
2022-08-10T09:29:56.290Z,98116.91
2022-08-10T09:36:17.095Z,98112.44
2022-08-10T09:36:28.297Z,98117.66
2022-08-10T09:38:23.952Z,98107.78
2022-08-10T09:41:09.114Z,98113.13
2022-08-10T09:43:46.463Z,98107.09
2022-08-10T09:46:27.324Z,98107.47
2022-08-10T09:49:03.490Z,98095.50
2022-08-10T09:51:45.815Z,98090.81
2022-08-10T09:54:31.555Z,98089.53
2022-08-10T09:57:44.960Z,98087.88
2022-08-10T10:00:07.957Z,98083.09
2022-08-10T10:02:43.350Z,98083.03
2022-08-10T10:05:26.123Z,98084.28
2022-08-10T10:08:02.110Z,98071.97
2022-08-10T10:10:35.382Z,98074.75
2022-08-10T10:13:07.290Z,98071.06
2022-08-10T10:15:39.114Z,98062.91
2022-08-10T10:18:21.759Z,98065.22
2022-08-10T10:21:03.028Z,98067.88
2022-08-10T10:23:42.402Z,98060.66
2022-08-10T10:26:18.964Z,98057.47
2022-08-10T10:29:44.754Z,98052.81
2022-08-10T10:31:56.878Z,98054.16
2022-08-10T10:34:34.572Z,98053.00
2022-08-10T10:37:06.600Z,98045.09
2022-08-10T10:39:37.599Z,98052.19
2022-08-10T10:42:35.030Z,98052.91
2022-08-10T10:45:11.164Z,98049.31
2022-08-10T10:47:53.008Z,98046.97
2022-08-10T10:50:25.958Z,98046.31
2022-08-10T10:53:01.888Z,98044.59
2022-08-10T10:56:14.754Z,98037.94
2022-08-10T10:58:28.594Z,98036.09
2022-08-10T11:01:03.590Z,98035.06
2022-08-10T11:03:49.397Z,98032.84
2022-08-10T11:06:39.256Z,98037.03
2022-08-10T11:10:09.478Z,98036.88
2022-08-10T11:12:19.661Z,98027.00
2022-08-10T11:15:00.081Z,98030.13
2022-08-10T11:17:32.965Z,98033.00
2022-08-10T11:20:06.975Z,98028.25
2022-08-10T11:22:37.919Z,98022.47
2022-08-10T11:25:11.224Z,98021.50
2022-08-10T11:27:49.022Z,98015.72
2022-08-10T11:30:21.321Z,98015.56
2022-08-10T11:33:02.867Z,98013.03
2022-08-10T11:35:35.488Z,98009.44
2022-08-10T11:38:31.616Z,98006.94
2022-08-10T11:41:12.695Z,97998.91
2022-08-10T11:44:00.446Z,98004.56
2022-08-10T11:46:32.255Z,98002.34
2022-08-10T11:49:05.280Z,98003.66
2022-08-10T11:51:43.299Z,97988.19
2022-08-10T11:54:20.046Z,97994.78
2022-08-10T11:56:50.261Z,97995.16
2022-08-10T11:59:38.490Z,97996.25
2022-08-10T12:02:07.843Z,97993.16
2022-08-10T12:04:37.607Z,97985.06
2022-08-10T12:10:01.711Z,97979.41
2022-08-10T12:10:10.126Z,97988.41
2022-08-10T12:12:46.252Z,97975.16
2022-08-10T12:15:18.505Z,97973.06
2022-08-10T12:17:51.257Z,97965.31
2022-08-10T12:20:27.720Z,97971.16
2022-08-10T12:22:59.427Z,97975.94
2022-08-10T12:25:55.528Z,97969.56
2022-08-10T12:28:51.363Z,97969.47
2022-08-10T12:31:17.805Z,97974.06
2022-08-10T12:34:01.558Z,97967.19
2022-08-10T12:36:37.974Z,97963.66
2022-08-10T12:39:11.255Z,97957.28
2022-08-10T12:41:45.493Z,97956.22
2022-08-10T12:44:17.634Z,97953.16
2022-08-10T12:46:52.238Z,97944.41
2022-08-10T12:49:24.534Z,97941.75
2022-08-10T12:52:00.814Z,97935.13
2022-08-10T12:54:32.234Z,97934.53
2022-08-10T12:57:04.316Z,97943.03
2022-08-10T12:59:33.349Z,97930.31
2022-08-10T13:02:20.291Z,97940.41
2022-08-10T13:04:51.301Z,97945.09
2022-08-10T13:08:25.464Z,97942.03
2022-08-10T13:10:15.918Z,97939.19
2022-08-10T13:12:45.846Z,97938.19
2022-08-10T13:15:45.767Z,97932.34
2022-08-10T13:18:18.120Z,97937.84
2022-08-10T13:20:52.319Z,97940.09
2022-08-10T13:23:23.850Z,97934.03
2022-08-10T13:25:53.568Z,97923.31
2022-08-10T13:28:35.317Z,97919.72
2022-08-10T13:31:08.791Z,97919.72
2022-08-10T13:34:03.720Z,97921.91
2022-08-10T13:36:49.984Z,97914.47
2022-08-10T13:39:23.571Z,97922.22
2022-08-10T13:41:54.318Z,97913.59
2022-08-10T13:44:32.497Z,97912.88
2022-08-10T13:47:00.927Z,97909.13
2022-08-10T13:49:32.393Z,97911.28
2022-08-10T13:52:00.639Z,97915.72
2022-08-10T13:54:31.373Z,97916.72
2022-08-10T13:57:00.431Z,97910.06
2022-08-10T14:00:33.661Z,97902.56
2022-08-10T14:02:25.104Z,97902.06
2022-08-10T14:04:57.111Z,97902.44
2022-08-10T14:07:25.918Z,97897.50
2022-08-10T14:09:54.899Z,97906.00
2022-08-10T14:12:33.599Z,97900.84
2022-08-10T14:15:02.863Z,97906.31
2022-08-10T14:17:31.652Z,97906.47
2022-08-10T14:20:03.375Z,97896.69
2022-08-10T14:22:34.034Z,97889.94
2022-08-10T14:25:08.159Z,97892.88
2022-08-10T14:28:01.797Z,97888.19
2022-08-10T14:30:30.944Z,97885.72
2022-08-10T14:33:00.420Z,97895.44
2022-08-10T14:36:19.451Z,97884.44
2022-08-10T14:38:21.536Z,97883.84
2022-08-10T14:40:54.338Z,97897.63
2022-08-10T14:43:28.743Z,97894.47
2022-08-10T14:46:05.634Z,97893.13
2022-08-10T14:48:36.279Z,97885.34
2022-08-10T14:51:08.196Z,97895.28
2022-08-10T14:53:37.903Z,97899.59
2022-08-10T14:56:09.469Z,97891.09
2022-08-10T14:58:38.962Z,97885.13
2022-08-10T15:01:27.206Z,97896.31
2022-08-10T15:04:16.026Z,97894.03
2022-08-10T15:06:54.841Z,97897.84
2022-08-10T15:09:24.874Z,97891.53
2022-08-10T15:12:13.571Z,97883.28
2022-08-10T15:14:46.076Z,97892.75
2022-08-10T15:17:18.152Z,97890.28
2022-08-10T15:20:02.381Z,97882.03
2022-08-10T15:22:38.182Z,97877.16
2022-08-10T15:25:19.138Z,97873.47
2022-08-10T15:27:56.181Z,97866.38
2022-08-10T15:30:31.053Z,97869.91
2022-08-10T15:33:57.860Z,97870.69
2022-08-10T15:36:34.855Z,97870.28
2022-08-10T15:39:13.553Z,97866.91
2022-08-10T15:42:00.495Z,97870.31
2022-08-10T15:44:41.287Z,97867.16
2022-08-10T15:47:12.253Z,97876.38
2022-08-10T15:49:51.803Z,97861.56
2022-08-10T15:52:39.969Z,97863.38
2022-08-10T15:55:41.341Z,97867.94
2022-08-10T15:58:10.912Z,97871.75
2022-08-10T16:00:45.113Z,97876.31
2022-08-10T16:03:17.276Z,97873.72
2022-08-10T16:06:01.858Z,97869.09
2022-08-10T16:08:56.099Z,97870.34
2022-08-10T16:11:37.587Z,97866.09
2022-08-10T16:14:24.951Z,97864.47
2022-08-10T16:16:56.313Z,97857.69
2022-08-10T16:19:26.853Z,97857.31
2022-08-10T16:22:01.270Z,97860.94
2022-08-10T16:24:33.105Z,97866.59
2022-08-10T16:27:06.614Z,97868.34
2022-08-10T16:29:56.083Z,97866.72
2022-08-10T16:32:26.001Z,97860.59
2022-08-10T16:34:55.521Z,97865.91
2022-08-10T16:37:24.228Z,97862.00
2022-08-10T16:39:59.129Z,97858.81
2022-08-10T16:42:32.708Z,97858.41
2022-08-10T16:45:04.895Z,97857.19
2022-08-10T16:47:35.745Z,97854.13
2022-08-10T16:50:07.117Z,97852.09
2022-08-10T16:52:36.333Z,97861.25
2022-08-10T16:55:23.432Z,97860.31
2022-08-10T16:57:55.475Z,97859.53
2022-08-10T17:00:24.911Z,97859.31
2022-08-10T17:02:57.123Z,97863.00
2022-08-10T17:06:03.561Z,97864.94
2022-08-10T17:08:17.594Z,97855.97
2022-08-10T17:10:46.210Z,97857.97
2022-08-10T17:13:16.574Z,97856.56
2022-08-10T17:15:51.272Z,97857.50
2022-08-10T17:18:28.631Z,97861.47
2022-08-10T17:20:59.704Z,97852.72
2022-08-10T17:23:30.389Z,97858.34
2022-08-10T17:26:02.177Z,97855.31
2022-08-10T17:28:35.386Z,97856.84
2022-08-10T17:31:43.654Z,97862.81
2022-08-10T17:34:01.714Z,97858.47
2022-08-10T17:36:33.817Z,97859.22
2022-08-10T17:39:03.398Z,97861.22
2022-08-10T17:41:34.903Z,97861.81
2022-08-10T17:44:06.525Z,97858.25
2022-08-10T17:46:38.631Z,97863.91
2022-08-10T17:49:10.068Z,97861.00
2022-08-10T17:51:40.008Z,97870.50
2022-08-10T17:54:10.534Z,97876.34
2022-08-10T17:56:39.546Z,97869.78
2022-08-10T17:59:17.387Z,97877.72
2022-08-10T18:02:01.801Z,97866.56
2022-08-10T18:04:41.354Z,97881.28
2022-08-10T18:07:11.572Z,97890.38
2022-08-10T18:09:43.222Z,97883.09
2022-08-10T18:12:18.126Z,97886.22
2022-08-10T18:14:50.810Z,97891.63
2022-08-10T18:17:24.926Z,97894.88
2022-08-10T18:19:57.007Z,97892.38
2022-08-10T18:22:26.342Z,97893.81
2022-08-10T18:24:55.679Z,97887.47
2022-08-10T18:27:46.509Z,97894.13
2022-08-10T18:30:15.815Z,97896.06
2022-08-10T18:32:50.092Z,97904.16
2022-08-10T18:35:20.069Z,97899.06
2022-08-10T18:37:50.429Z,97906.72
2022-08-10T18:40:20.172Z,97904.16
2022-08-10T18:42:49.836Z,97907.38
2022-08-10T18:45:22.476Z,97907.59
2022-08-10T18:47:59.692Z,97912.56
2022-08-10T18:50:31.871Z,97922.69
2022-08-10T18:53:02.666Z,97924.13
2022-08-10T18:55:51.542Z,97924.38
2022-08-10T18:58:45.034Z,97926.59
2022-08-10T19:01:25.082Z,97930.81
2022-08-10T19:04:01.914Z,97936.13
2022-08-10T19:06:52.970Z,97935.44
2022-08-10T19:09:42.147Z,97941.41
2022-08-10T19:12:29.834Z,97939.44
2022-08-10T19:15:07.138Z,97939.84
2022-08-10T19:18:03.444Z,97940.78
2022-08-10T19:20:35.264Z,97941.59
2022-08-10T19:23:14.466Z,97950.88
2022-08-10T19:26:42.375Z,97949.16
2022-08-10T19:28:42.391Z,97944.66
2022-08-10T19:31:15.936Z,97945.03
2022-08-10T19:33:52.883Z,97949.22
2022-08-10T19:36:45.997Z,97950.72
2022-08-10T19:39:19.964Z,97947.31
2022-08-10T19:41:54.442Z,97953.41
2022-08-10T19:44:27.998Z,97952.03
2022-08-10T19:47:01.746Z,97961.03
2022-08-10T19:49:39.794Z,97955.06
2022-08-10T19:52:13.813Z,97958.44
2022-08-10T19:54:53.082Z,97965.72
2022-08-10T19:57:39.286Z,97965.66
2022-08-10T20:00:18.007Z,97966.00
2022-08-10T20:03:01.398Z,97967.69
2022-08-10T20:05:34.093Z,97966.91
2022-08-10T20:08:09.648Z,97965.88
2022-08-10T20:10:44.795Z,97963.63
2022-08-10T20:13:15.631Z,97961.38
2022-08-10T20:15:47.560Z,97966.44
2022-08-10T20:18:24.404Z,97962.34
2022-08-10T20:20:59.316Z,97971.31
2022-08-10T20:23:31.135Z,97974.13
2022-08-10T20:26:03.213Z,97962.44
2022-08-10T20:28:40.654Z,97964.78
2022-08-10T20:31:17.570Z,97973.00
2022-08-10T20:33:57.440Z,97976.84
2022-08-10T20:36:32.706Z,97971.13
2022-08-10T20:39:11.352Z,97970.72
2022-08-10T20:41:49.422Z,97976.28
2022-08-10T20:44:33.305Z,97972.88
2022-08-10T20:47:06.858Z,97984.13
2022-08-10T20:49:39.604Z,97976.50
2022-08-10T20:52:09.551Z,97973.19
2022-08-10T20:54:43.644Z,97975.09
2022-08-10T20:57:54.052Z,97970.47
2022-08-10T21:00:28.765Z,97969.81
2022-08-10T21:03:31.339Z,97966.09
2022-08-10T21:06:18.797Z,97966.81
2022-08-10T21:09:10.577Z,97965.53
2022-08-10T21:11:47.410Z,97971.09
2022-08-10T21:14:29.530Z,97962.44
2022-08-10T21:17:10.819Z,97957.91
2022-08-10T21:20:17.151Z,97969.03
2022-08-10T21:22:47.948Z,97967.59
2022-08-10T21:25:20.685Z,97958.72
2022-08-10T21:28:08.466Z,97958.66
2022-08-10T21:30:47.243Z,97960.09
2022-08-10T21:33:27.492Z,97966.19
2022-08-10T21:35:58.483Z,97965.75
2022-08-10T21:38:31.444Z,97967.22
2022-08-10T21:41:57.571Z,97972.81
2022-08-10T21:44:53.510Z,97971.69
2022-08-10T21:48:06.818Z,97974.59
2022-08-10T21:51:01.722Z,97975.56
2022-08-10T21:53:55.276Z,97976.28
2022-08-10T21:56:47.041Z,97978.56
2022-08-10T21:59:42.750Z,97980.59
2022-08-10T22:02:31.697Z,97979.13
2022-08-10T22:05:18.702Z,97983.34
2022-08-10T22:08:12.134Z,97983.41
2022-08-10T22:11:00.646Z,97981.34
2022-08-10T22:13:49.126Z,97975.78
2022-08-10T22:16:45.080Z,97975.06
2022-08-10T22:19:31.794Z,97975.38
2022-08-10T22:22:27.734Z,97968.19
2022-08-10T22:25:31.986Z,97969.09
2022-08-10T22:28:19.325Z,97970.19
2022-08-10T22:34:30.895Z,97968.88
2022-08-10T22:37:23.926Z,97969.66
2022-08-10T22:40:19.466Z,97965.88
2022-08-10T22:43:11.036Z,97961.19
2022-08-10T22:46:04.394Z,97964.00
2022-08-10T22:48:58.894Z,97962.97
2022-08-10T22:51:33.525Z,97962.78
2022-08-10T22:54:31.282Z,97965.56
2022-08-10T22:57:19.028Z,97965.34
2022-08-10T22:59:49.288Z,97961.38
2022-08-10T23:02:28.566Z,97965.88
2022-08-10T23:05:00.140Z,97961.13
2022-08-10T23:07:31.803Z,97959.72
2022-08-10T23:10:02.800Z,97960.38
2022-08-10T23:12:36.604Z,97954.31
2022-08-10T23:15:24.534Z,97951.00
2022-08-10T23:18:13.341Z,97954.88
2022-08-10T23:20:44.276Z,97944.34
2022-08-10T23:23:24.033Z,97952.31
2022-08-10T23:25:57.512Z,97944.69
2022-08-10T23:28:39.034Z,97949.13
2022-08-10T23:31:16.041Z,97954.13
2022-08-10T23:33:46.220Z,97950.19
2022-08-10T23:36:33.454Z,97951.03
2022-08-10T23:39:26.343Z,97942.66
2022-08-10T23:42:04.663Z,97947.09
2022-08-10T23:44:36.807Z,97939.25
2022-08-10T23:47:05.884Z,97931.59
2022-08-10T23:49:35.845Z,97934.09
2022-08-10T23:52:13.022Z,97923.75
2022-08-10T23:54:50.134Z,97930.34
2022-08-10T23:57:20.131Z,97919.50
2022-08-10T23:59:54.315Z,97923.00
